Ellet, Ohio
Current Conditions -  °F | °C
As of 9:54 AM on Thursday 30 Oct 2014 (Local Time) from KAKR Reporting Station
Light Rain Light Rain  
Wind Chill: 44°   Ceiling: 2400
Heat Index: 44°   Visibility: 5mi
Dew Point: 41°   Wind: 3mph
Humidity: 89%   Direction: 300°WNW
Pressure: 30.12"   Gusts: NA
Location:  41.0159°N, 81.4403°W
Report Text: KAKR 301354Z AUTO 30003KT 5SM -RA BR SCT007 OVC024 07/05 A3012 RMK AO2 RAB15 SLP205 P0000 T00670050
Loading
Personal Weather Stations






























Interactive Weather Map
Tropical Storm Tracking
New forecast layout! Learn more

10-Day Weather Forecast

Advertisements
Track Severe Weather on mobile